createdAt,value
2023-06-11T00:00:43.529Z,72.36
2023-06-11T00:01:43.525Z,72.80
2023-06-11T00:02:43.618Z,73.27
2023-06-11T00:03:43.678Z,73.10
2023-06-11T00:04:43.522Z,73.27
2023-06-11T00:05:43.478Z,73.27
2023-06-11T00:06:43.469Z,73.04
2023-06-11T00:07:43.462Z,73.27
2023-06-11T00:08:43.557Z,73.60
2023-06-11T00:09:43.434Z,73.57
2023-06-11T00:10:43.461Z,74.01
2023-06-11T00:11:43.414Z,74.21
2023-06-11T00:12:43.404Z,74.92
2023-06-11T00:13:43.404Z,74.78
2023-06-11T00:14:43.379Z,74.01
2023-06-11T00:15:43.401Z,74.24
2023-06-11T00:16:43.440Z,74.88
2023-06-11T00:17:43.370Z,75.45
2023-06-11T00:18:43.337Z,75.62
2023-06-11T00:19:43.356Z,75.48
2023-06-11T00:20:43.322Z,76.22
2023-06-11T00:21:43.311Z,75.69
2023-06-11T00:22:43.295Z,76.50
2023-06-11T00:23:43.368Z,76.30
2023-06-11T00:24:43.303Z,75.93
2023-06-11T00:25:43.296Z,75.99
2023-06-11T00:26:43.254Z,76.46
2023-06-11T00:27:43.246Z,76.94
2023-06-11T00:28:43.231Z,76.46
2023-06-11T00:29:43.227Z,76.94
2023-06-11T00:30:43.213Z,77.44
2023-06-11T00:31:43.221Z,77.58
2023-06-11T00:32:43.220Z,77.88
2023-06-11T00:33:43.199Z,78.48
2023-06-11T00:34:43.180Z,79.12
2023-06-11T00:35:43.161Z,79.59
2023-06-11T00:36:43.150Z,79.19
2023-06-11T00:37:43.148Z,79.12
2023-06-11T00:38:43.126Z,79.39
2023-06-11T00:39:43.127Z,79.63
2023-06-11T00:40:43.126Z,79.52
2023-06-11T00:41:43.099Z,79.19
2023-06-11T00:42:43.096Z,79.12
2023-06-11T00:43:43.073Z,79.35
2023-06-11T00:44:43.062Z,80.36
2023-06-11T00:45:43.088Z,80.03
2023-06-11T00:46:43.054Z,79.77
2023-06-11T00:47:43.057Z,79.93
2023-06-11T00:48:43.041Z,79.73
2023-06-11T00:49:43.011Z,80.51
2023-06-11T00:50:42.999Z,80.57
2023-06-11T00:51:42.990Z,80.67
2023-06-11T00:52:42.976Z,80.98
2023-06-11T00:53:42.979Z,80.98
2023-06-11T00:54:42.966Z,81.14
2023-06-11T00:55:42.952Z,81.18
2023-06-11T00:56:42.961Z,81.72
2023-06-11T00:57:42.953Z,81.98
2023-06-11T00:58:42.988Z,82.09
2023-06-11T00:59:42.906Z,81.98
2023-06-11T01:00:42.944Z,82.12
2023-06-11T01:01:43.043Z,82.56
2023-06-11T01:02:42.983Z,82.97
2023-06-11T01:03:42.868Z,83.03
2023-06-11T01:04:43.018Z,82.89
2023-06-11T01:05:42.899Z,83.21
2023-06-11T01:06:42.827Z,83.21
2023-06-11T01:07:42.813Z,83.75
2023-06-11T01:08:42.815Z,83.47
2023-06-11T01:09:42.800Z,83.33
2023-06-11T01:10:42.783Z,83.33
2023-06-11T01:11:42.774Z,83.33
2023-06-11T01:12:42.797Z,83.38
2023-06-11T01:13:42.756Z,83.47
2023-06-11T01:14:42.742Z,83.78
2023-06-11T01:15:42.730Z,83.64
2023-06-11T01:16:42.725Z,83.88
2023-06-11T01:17:42.788Z,83.53
2023-06-11T01:18:42.696Z,83.58
2023-06-11T01:19:42.689Z,83.47
2023-06-11T01:20:42.676Z,82.87
2023-06-11T01:21:42.668Z,83.38
2023-06-11T01:22:42.654Z,83.38
2023-06-11T01:23:42.902Z,83.44
2023-06-11T01:24:42.639Z,83.81
2023-06-11T01:25:42.624Z,83.27
2023-06-11T01:26:42.609Z,83.50
2023-06-11T01:27:42.606Z,83.50
2023-06-11T01:28:42.619Z,83.17
2023-06-11T01:29:42.580Z,82.83
2023-06-11T01:30:42.571Z,82.65
2023-06-11T01:31:42.645Z,82.77
2023-06-11T01:32:42.615Z,83.53
2023-06-11T01:33:42.539Z,83.88
2023-06-11T01:34:42.686Z,83.78
2023-06-11T01:35:42.522Z,84.02
2023-06-11T01:36:42.510Z,83.88
2023-06-11T01:37:42.494Z,83.98
2023-06-11T01:38:42.494Z,84.26
2023-06-11T01:39:42.476Z,84.18
2023-06-11T01:40:42.469Z,84.22
2023-06-11T01:41:42.453Z,84.18
2023-06-11T01:42:42.452Z,84.22
2023-06-11T01:43:42.430Z,84.28
2023-06-11T01:44:42.442Z,84.28
2023-06-11T01:45:42.414Z,84.28
2023-06-11T01:46:42.474Z,84.22
2023-06-11T01:47:42.441Z,84.22
2023-06-11T01:48:42.376Z,84.69
2023-06-11T01:49:42.367Z,84.63
2023-06-11T01:50:42.354Z,84.57
2023-06-11T01:51:42.347Z,84.06
2023-06-11T01:52:42.349Z,84.28
2023-06-11T01:53:42.328Z,84.18
2023-06-11T01:54:42.316Z,84.46
2023-06-11T01:55:42.311Z,84.28
2023-06-11T01:56:42.291Z,84.89
2023-06-11T01:57:42.289Z,84.93
2023-06-11T01:58:42.275Z,84.18
2023-06-11T01:59:42.265Z,84.24
2023-06-11T02:00:42.270Z,84.79
2023-06-11T02:01:42.326Z,84.32
2023-06-11T02:02:42.409Z,84.18
2023-06-11T02:03:42.541Z,83.52
2023-06-11T02:04:42.206Z,83.78
2023-06-11T02:05:42.198Z,84.21
2023-06-11T02:06:42.188Z,83.67
2023-06-11T02:07:42.178Z,82.97
2023-06-11T02:08:42.169Z,82.77
2023-06-11T02:09:42.158Z,83.21
2023-06-11T02:10:42.141Z,83.78
2023-06-11T02:11:42.132Z,83.44
2023-06-11T02:12:42.126Z,83.44
2023-06-11T02:13:42.116Z,83.30
2023-06-11T02:14:42.105Z,85.09
2023-06-11T02:15:42.096Z,85.15
2023-06-11T02:16:42.128Z,84.95
2023-06-11T02:17:42.108Z,84.63
2023-06-11T02:18:42.056Z,84.72
2023-06-11T02:19:42.048Z,85.03
2023-06-11T02:20:42.032Z,84.83
2023-06-11T02:21:42.031Z,85.27
2023-06-11T02:22:42.025Z,84.18
2023-06-11T02:23:42.015Z,83.61
2023-06-11T02:24:41.994Z,83.27
2023-06-11T02:25:41.997Z,83.58
2023-06-11T02:26:41.972Z,83.80
2023-06-11T02:27:41.974Z,83.78
2023-06-11T02:28:41.951Z,83.72
2023-06-11T02:29:41.943Z,83.41
2023-06-11T02:30:41.929Z,83.11
2023-06-11T02:31:41.995Z,82.93
2023-06-11T02:32:41.976Z,82.84
2023-06-11T02:33:41.912Z,82.91
2023-06-11T02:34:41.889Z,82.53
2023-06-11T02:35:41.879Z,82.47
2023-06-11T02:36:41.864Z,82.70
2023-06-11T02:37:41.874Z,82.47
2023-06-11T02:38:41.857Z,82.53
2023-06-11T02:39:41.835Z,82.50
2023-06-11T02:40:41.850Z,82.73
2023-06-11T02:41:41.817Z,83.01
2023-06-11T02:42:41.808Z,82.91
2023-06-11T02:43:41.795Z,83.21
2023-06-11T02:44:41.783Z,83.31
2023-06-11T02:45:41.770Z,83.41
2023-06-11T02:46:41.783Z,83.49
2023-06-11T02:47:41.793Z,83.52
2023-06-11T02:48:41.761Z,83.55
2023-06-11T02:49:41.738Z,83.69
2023-06-11T02:50:41.718Z,83.72
2023-06-11T02:51:41.713Z,83.75
2023-06-11T02:52:41.697Z,83.61
2023-06-11T02:53:41.691Z,83.69
2023-06-11T02:54:41.680Z,83.81
2023-06-11T02:55:41.670Z,83.86
2023-06-11T02:56:41.666Z,83.86
2023-06-11T02:57:41.646Z,84.10
2023-06-11T02:58:41.636Z,84.20
2023-06-11T02:59:41.625Z,84.16
2023-06-11T03:00:41.612Z,83.95
2023-06-11T03:01:41.621Z,84.12
2023-06-11T03:02:41.617Z,84.32
2023-06-11T03:03:41.622Z,84.20
2023-06-11T03:04:41.601Z,84.06
2023-06-11T03:05:41.561Z,83.61
2023-06-11T03:06:41.550Z,83.81
2023-06-11T03:07:41.545Z,83.81
2023-06-11T03:08:41.552Z,83.75
2023-06-11T03:09:41.517Z,83.72
2023-06-11T03:10:41.511Z,83.75
2023-06-11T03:11:41.499Z,84.20
2023-06-11T03:12:41.494Z,84.20
2023-06-11T03:13:41.472Z,84.30
2023-06-11T03:14:41.472Z,84.06
2023-06-11T03:15:41.491Z,83.95
2023-06-11T03:16:41.448Z,83.75
2023-06-11T03:17:41.508Z,83.55
2023-06-11T03:18:41.431Z,83.52
2023-06-11T03:19:41.411Z,83.41
2023-06-11T03:20:41.419Z,83.61
2023-06-11T03:21:41.386Z,83.39
2023-06-11T03:22:41.382Z,83.45
2023-06-11T03:23:41.402Z,83.38
2023-06-11T03:24:41.356Z,83.38
2023-06-11T03:25:41.347Z,83.52
2023-06-11T03:26:41.401Z,83.80
2023-06-11T03:27:41.322Z,84.02
2023-06-11T03:28:41.312Z,84.12
2023-06-11T03:29:41.310Z,84.36
2023-06-11T03:30:41.299Z,84.77
2023-06-11T03:31:41.328Z,84.91
2023-06-11T03:32:41.442Z,88.34
2023-06-11T03:33:41.261Z,90.47
2023-06-11T03:34:41.257Z,89.96
2023-06-11T03:35:41.236Z,95.86
2023-06-11T03:36:41.249Z,99.04
2023-06-11T03:37:41.214Z,99.99
2023-06-11T03:38:41.215Z,99.99
2023-06-11T03:39:41.191Z,99.99
2023-06-11T03:40:41.193Z,99.99
2023-06-11T03:41:41.202Z,99.99
2023-06-11T03:42:41.166Z,99.99
2023-06-11T03:43:41.156Z,99.99
2023-06-11T03:44:41.162Z,99.99
2023-06-11T03:45:41.133Z,99.99
2023-06-11T03:46:41.181Z,99.99
2023-06-11T03:47:41.151Z,99.99
2023-06-11T03:48:41.096Z,99.99
2023-06-11T03:49:41.083Z,99.99
2023-06-11T03:50:41.073Z,99.99
2023-06-11T03:51:41.061Z,99.99
2023-06-11T03:52:41.070Z,99.99
2023-06-11T03:53:41.042Z,99.99
2023-06-11T03:54:41.030Z,99.99
2023-06-11T03:55:41.016Z,99.99
2023-06-11T03:56:41.015Z,99.99
2023-06-11T03:57:41.001Z,99.99
2023-06-11T03:58:40.989Z,99.99
2023-06-11T03:59:40.976Z,99.99
2023-06-11T04:00:40.966Z,99.99
2023-06-11T04:01:40.954Z,99.99
2023-06-11T04:02:41.128Z,99.99
2023-06-11T04:03:41.057Z,99.99
2023-06-11T04:04:41.009Z,99.99
2023-06-11T04:05:40.912Z,99.99
2023-06-11T04:06:40.925Z,99.99
2023-06-11T04:07:40.889Z,99.19
2023-06-11T04:08:40.899Z,99.90
2023-06-11T04:09:40.869Z,99.99
2023-06-11T04:10:40.905Z,98.59
2023-06-11T04:11:40.848Z,99.49
2023-06-11T04:12:40.849Z,99.99
2023-06-11T04:13:40.827Z,99.81
2023-06-11T04:14:40.820Z,98.89
2023-06-11T04:15:40.814Z,98.44
2023-06-11T04:16:40.847Z,98.79
2023-06-11T04:17:40.838Z,99.29
2023-06-11T04:18:40.779Z,99.00
2023-06-11T04:19:40.767Z,97.93
2023-06-11T04:20:40.763Z,97.79
2023-06-11T04:21:40.742Z,98.29
2023-06-11T04:22:40.747Z,99.35
2023-06-11T04:23:40.792Z,99.49
2023-06-11T04:24:40.730Z,97.99
2023-06-11T04:25:40.704Z,97.18
2023-06-11T04:26:40.693Z,98.33
2023-06-11T04:27:40.677Z,97.68
2023-06-11T04:28:40.670Z,98.69
2023-06-11T04:29:40.659Z,97.33
2023-06-11T04:30:40.666Z,96.97
2023-06-11T04:31:40.686Z,98.29
2023-06-11T04:32:40.643Z,98.90
2023-06-11T04:33:40.626Z,99.40
2023-06-11T04:34:40.604Z,98.39
2023-06-11T04:35:40.606Z,97.32
2023-06-11T04:36:40.582Z,97.63
2023-06-11T04:37:40.574Z,97.93
2023-06-11T04:38:40.562Z,97.33
2023-06-11T04:39:40.551Z,96.12
2023-06-11T04:40:40.564Z,95.41
2023-06-11T04:41:40.551Z,96.74
2023-06-11T04:42:40.523Z,95.71
2023-06-11T04:43:40.509Z,94.86
2023-06-11T04:44:40.498Z,95.22
2023-06-11T04:45:40.486Z,96.03
2023-06-11T04:46:40.550Z,96.27
2023-06-11T04:47:40.514Z,96.27
2023-06-11T04:48:40.455Z,95.87
2023-06-11T04:49:40.443Z,93.38
2023-06-11T04:50:40.439Z,92.55
2023-06-11T04:51:40.423Z,93.15
2023-06-11T04:52:40.416Z,93.30
2023-06-11T04:53:40.405Z,92.99
2023-06-11T04:54:40.392Z,93.05
2023-06-11T04:55:40.379Z,92.63
2023-06-11T04:56:40.402Z,92.55
2023-06-11T04:57:40.357Z,93.50
2023-06-11T04:58:40.368Z,93.10
2023-06-11T04:59:40.338Z,91.60
2023-06-11T05:00:40.351Z,92.00
2023-06-11T05:01:40.364Z,92.71
2023-06-11T05:02:40.346Z,91.41
2023-06-11T05:03:40.296Z,92.14
2023-06-11T05:04:40.286Z,92.05
2023-06-11T05:05:40.336Z,91.80
2023-06-11T05:06:40.269Z,91.84
2023-06-11T05:07:40.254Z,92.71
2023-06-11T05:08:40.244Z,92.30
2023-06-11T05:09:41.200Z,91.13
2023-06-11T05:10:40.224Z,91.84
2023-06-11T05:11:40.214Z,91.29
2023-06-11T05:12:40.225Z,89.69
2023-06-11T05:13:40.195Z,91.60
2023-06-11T05:14:40.183Z,90.42
2023-06-11T05:15:40.171Z,90.70
2023-06-11T05:16:40.409Z,89.94
2023-06-11T05:17:40.220Z,88.12
2023-06-11T05:18:40.145Z,88.24
2023-06-11T05:19:40.139Z,88.14
2023-06-11T05:20:40.124Z,88.07
2023-06-11T05:21:40.135Z,87.78
2023-06-11T05:22:40.102Z,88.03
2023-06-11T05:23:40.115Z,87.29
2023-06-11T05:24:40.080Z,86.68
2023-06-11T05:25:40.069Z,87.19
2023-06-11T05:26:40.063Z,86.78
2023-06-11T05:27:40.048Z,85.88
2023-06-11T05:28:40.064Z,86.28
2023-06-11T05:29:40.496Z,86.24
2023-06-11T05:30:40.020Z,85.13
2023-06-11T05:31:40.054Z,84.53
2023-06-11T05:32:40.064Z,84.63
2023-06-11T05:33:39.986Z,83.11
2023-06-11T05:34:39.978Z,83.44
2023-06-11T05:35:39.991Z,82.50
2023-06-11T05:36:39.956Z,82.07
2023-06-11T05:37:39.942Z,82.07
2023-06-11T05:38:39.934Z,82.23
2023-06-11T05:39:39.930Z,83.00
2023-06-11T05:40:39.916Z,82.45
2023-06-11T05:41:39.920Z,81.29
2023-06-11T05:42:39.890Z,79.84
2023-06-11T05:43:39.884Z,79.66
2023-06-11T05:44:39.888Z,80.19
2023-06-11T05:45:39.869Z,79.49
2023-06-11T05:46:39.903Z,77.31
2023-06-11T05:47:39.987Z,75.74
2023-06-11T05:48:39.823Z,72.72
2023-06-11T05:49:39.821Z,71.79
2023-06-11T05:50:39.812Z,70.82
2023-06-11T05:51:39.794Z,69.82
2023-06-11T05:52:39.786Z,69.62
2023-06-11T05:53:39.771Z,68.52
2023-06-11T05:54:39.763Z,67.02
2023-06-11T05:55:39.750Z,67.32
2023-06-11T05:56:39.742Z,66.56
2023-06-11T05:57:39.730Z,66.69
2023-06-11T05:58:39.725Z,65.46
2023-06-11T05:59:39.710Z,64.86
2023-06-11T06:00:39.732Z,62.71
2023-06-11T06:01:39.698Z,64.60
2023-06-11T06:02:39.770Z,62.01
2023-06-11T06:03:39.819Z,63.23
2023-06-11T06:04:39.692Z,63.04
2023-06-11T06:05:39.652Z,59.96
2023-06-11T06:06:39.642Z,62.85
2023-06-11T06:07:39.630Z,60.03
2023-06-11T06:08:39.642Z,58.70
2023-06-11T06:09:39.612Z,58.38
2023-06-11T06:10:39.607Z,57.86
2023-06-11T06:11:39.598Z,58.72
2023-06-11T06:12:39.587Z,57.29
2023-06-11T06:13:39.573Z,59.27
2023-06-11T06:14:39.565Z,58.48
2023-06-11T06:15:39.552Z,58.28
2023-06-11T06:16:39.580Z,57.78
2023-06-11T06:17:39.546Z,57.65
2023-06-11T06:18:39.529Z,57.83
2023-06-11T06:19:39.522Z,56.66
2023-06-11T06:20:39.509Z,57.53
2023-06-11T06:21:39.514Z,57.50
2023-06-11T06:22:39.493Z,55.07
2023-06-11T06:23:39.498Z,54.05
2023-06-11T06:24:39.472Z,54.37
2023-06-11T06:25:39.555Z,54.64
2023-06-11T06:26:39.453Z,54.29
2023-06-11T06:27:39.442Z,54.02
2023-06-11T06:28:39.439Z,54.84
2023-06-11T06:29:39.426Z,54.15
2023-06-11T06:30:39.413Z,54.74
2023-06-11T06:31:39.494Z,55.54
2023-06-11T06:32:39.529Z,54.84
2023-06-11T06:33:39.383Z,54.52
2023-06-11T06:34:39.383Z,53.47
2023-06-11T06:35:39.367Z,53.80
2023-06-11T06:36:39.363Z,52.38
2023-06-11T06:37:39.357Z,52.56
2023-06-11T06:38:39.346Z,52.85
2023-06-11T06:39:39.344Z,51.74
2023-06-11T06:40:39.329Z,52.98
2023-06-11T06:41:39.323Z,53.03
2023-06-11T06:42:39.316Z,55.36
2023-06-11T06:43:39.301Z,55.41
2023-06-11T06:44:39.298Z,53.70
2023-06-11T06:45:39.279Z,52.41
2023-06-11T06:46:39.274Z,53.05
2023-06-11T06:47:39.284Z,52.03
2023-06-11T06:48:39.353Z,51.44
2023-06-11T06:49:39.238Z,51.02
2023-06-11T06:50:39.235Z,49.54
2023-06-11T06:51:39.224Z,52.50
2023-06-11T06:52:39.228Z,50.13
2023-06-11T06:53:39.204Z,51.02
2023-06-11T06:54:39.204Z,50.83
2023-06-11T06:55:39.184Z,50.63
2023-06-11T06:56:39.181Z,51.84
2023-06-11T06:57:39.167Z,52.78
2023-06-11T06:58:39.171Z,51.39
2023-06-11T06:59:39.147Z,49.84
2023-06-11T07:00:39.140Z,51.42
2023-06-11T07:01:39.181Z,51.64
2023-06-11T07:02:39.172Z,53.52
2023-06-11T07:03:39.132Z,51.47
2023-06-11T07:04:39.142Z,52.70
2023-06-11T07:05:39.178Z,54.29
2023-06-11T07:06:39.094Z,53.50
2023-06-11T07:07:40.921Z,53.52
2023-06-11T07:08:39.069Z,51.91
2023-06-11T07:09:39.056Z,51.17
2023-06-11T07:10:39.051Z,50.53
2023-06-11T07:11:39.049Z,50.87
2023-06-11T07:12:39.028Z,51.56
2023-06-11T07:13:39.047Z,51.77
2023-06-11T07:14:39.014Z,53.87
2023-06-11T07:15:39.049Z,53.67
2023-06-11T07:16:39.047Z,53.85
2023-06-11T07:17:39.051Z,51.98
2023-06-11T07:18:38.997Z,51.67
2023-06-11T07:19:39.096Z,50.87
2023-06-11T07:20:39.125Z,53.67
2023-06-11T07:21:38.948Z,52.96
2023-06-11T07:22:38.944Z,53.85
2023-06-11T07:23:38.980Z,52.70
2023-06-11T07:24:38.924Z,52.41
2023-06-11T07:25:38.931Z,53.89
2023-06-11T07:26:38.901Z,51.42
2023-06-11T07:27:38.914Z,52.26
2023-06-11T07:28:38.882Z,49.37
2023-06-11T07:29:38.874Z,50.53
2023-06-11T07:30:38.877Z,48.61
2023-06-11T07:31:38.905Z,47.05
2023-06-11T07:32:38.878Z,51.47
2023-06-11T07:33:38.838Z,48.51
2023-06-11T07:34:38.831Z,47.21
2023-06-11T07:35:38.835Z,48.75
2023-06-11T07:36:38.831Z,49.02
2023-06-11T07:37:38.799Z,49.67
2023-06-11T07:38:38.812Z,47.18
2023-06-11T07:39:38.781Z,48.73
2023-06-11T07:40:38.775Z,51.66
2023-06-11T07:41:38.766Z,50.58
2023-06-11T07:42:38.754Z,48.12
2023-06-11T07:43:38.742Z,50.38
2023-06-11T07:44:38.737Z,48.56
2023-06-11T07:45:38.731Z,51.22
2023-06-11T07:46:38.767Z,48.44
2023-06-11T07:47:38.773Z,46.47
2023-06-11T07:48:38.695Z,46.55
2023-06-11T07:49:38.688Z,48.02
2023-06-11T07:50:38.764Z,45.34
2023-06-11T07:51:38.674Z,44.53
2023-06-11T07:52:38.683Z,46.38
2023-06-11T07:53:38.653Z,45.05
2023-06-11T07:54:38.652Z,45.01
2023-06-11T07:55:38.772Z,47.77
2023-06-11T07:56:38.621Z,50.26
2023-06-11T07:57:38.613Z,51.27
2023-06-11T07:58:38.601Z,51.66
2023-06-11T07:59:38.595Z,49.30
2023-06-11T08:00:38.583Z,48.26
2023-06-11T08:01:38.599Z,48.49
2023-06-11T08:02:38.654Z,45.78
2023-06-11T08:03:38.683Z,46.93
2023-06-11T08:04:38.547Z,48.59
2023-06-11T08:05:38.570Z,48.93
2023-06-11T08:06:38.528Z,50.06
2023-06-11T08:07:38.516Z,50.43
2023-06-11T08:08:38.533Z,49.27
2023-06-11T08:09:38.501Z,48.29
2023-06-11T08:10:38.490Z,44.98
2023-06-11T08:11:38.487Z,44.37
2023-06-11T08:12:38.472Z,43.93
2023-06-11T08:13:38.464Z,44.37
2023-06-11T08:14:38.451Z,46.29
2023-06-11T08:15:38.444Z,43.09
2023-06-11T08:16:38.460Z,45.54
2023-06-11T08:17:38.463Z,47.02
2023-06-11T08:18:38.413Z,45.61
2023-06-11T08:19:38.412Z,48.37
2023-06-11T08:20:38.396Z,47.25
2023-06-11T08:21:38.396Z,46.15
2023-06-11T08:22:38.381Z,45.71
2023-06-11T08:23:38.433Z,45.93
2023-06-11T08:24:38.392Z,44.60
2023-06-11T08:25:38.351Z,45.71
2023-06-11T08:26:38.340Z,46.80
2023-06-11T08:27:38.336Z,47.60
2023-06-11T08:28:38.321Z,45.24
2023-06-11T08:29:38.314Z,44.24
2023-06-11T08:30:38.308Z,45.03
2023-06-11T08:31:38.329Z,45.34
2023-06-11T08:32:38.426Z,47.92
2023-06-11T08:33:38.285Z,46.23
2023-06-11T08:34:38.264Z,45.32
2023-06-11T08:35:38.268Z,45.86
2023-06-11T08:36:38.252Z,45.15
2023-06-11T08:37:38.241Z,44.67
2023-06-11T08:38:39.040Z,43.05
2023-06-11T08:39:38.232Z,43.47
2023-06-11T08:40:38.229Z,44.26
2023-06-11T08:41:38.221Z,44.16
2023-06-11T08:42:38.196Z,44.94
2023-06-11T08:43:38.186Z,47.68
2023-06-11T08:44:38.190Z,46.27
2023-06-11T08:45:38.180Z,45.05
2023-06-11T08:46:38.196Z,46.11
2023-06-11T08:47:38.168Z,46.99
2023-06-11T08:48:38.134Z,48.32
2023-06-11T08:49:38.950Z,45.50
2023-06-11T08:50:38.113Z,42.23
2023-06-11T08:51:38.130Z,43.92
2023-06-11T08:52:38.094Z,44.81
2023-06-11T08:53:38.088Z,44.16
2023-06-11T08:54:38.073Z,44.81
2023-06-11T08:55:38.080Z,46.01
2023-06-11T08:56:38.084Z,46.85
2023-06-11T08:57:38.045Z,44.31
2023-06-11T08:58:38.035Z,43.85
2023-06-11T08:59:38.038Z,43.13
2023-06-11T09:00:38.017Z,42.95
2023-06-11T09:01:38.077Z,42.38
2023-06-11T09:02:38.047Z,43.66
2023-06-11T09:03:38.005Z,45.45
2023-06-11T09:04:37.977Z,41.07
2023-06-11T09:05:37.981Z,38.30
2023-06-11T09:06:37.955Z,42.59
2023-06-11T09:07:37.949Z,41.86
2023-06-11T09:08:37.958Z,42.18
2023-06-11T09:09:37.936Z,41.29
2023-06-11T09:10:37.916Z,42.75
2023-06-11T09:11:37.926Z,39.02
2023-06-11T09:12:37.952Z,42.57
2023-06-11T09:13:37.889Z,42.53
2023-06-11T09:14:37.879Z,42.35
2023-06-11T09:15:37.887Z,42.95
2023-06-11T09:16:37.903Z,41.37
2023-06-11T09:17:37.865Z,41.41
2023-06-11T09:18:37.844Z,41.98
2023-06-11T09:19:37.832Z,42.26
2023-06-11T09:20:37.829Z,40.66
2023-06-11T09:21:37.821Z,41.96
2023-06-11T09:22:37.800Z,40.70
2023-06-11T09:23:37.817Z,40.03
2023-06-11T09:24:37.782Z,41.71
2023-06-11T09:25:37.774Z,40.20
2023-06-11T09:26:37.766Z,41.11
2023-06-11T09:27:37.757Z,41.90
2023-06-11T09:28:37.770Z,41.33
2023-06-11T09:29:37.735Z,39.77
2023-06-11T09:30:37.723Z,40.62
2023-06-11T09:31:37.737Z,40.80
2023-06-11T09:32:37.875Z,39.99
2023-06-11T09:33:37.756Z,36.65
2023-06-11T09:34:37.685Z,37.34
2023-06-11T09:35:37.675Z,37.75
2023-06-11T09:36:37.666Z,37.98
2023-06-11T09:37:37.660Z,38.83
2023-06-11T09:38:37.647Z,38.03
2023-06-11T09:39:37.638Z,39.77
2023-06-11T09:40:37.631Z,38.17
2023-06-11T09:41:37.619Z,38.75
2023-06-11T09:42:37.607Z,39.93
2023-06-11T09:43:37.660Z,40.01
2023-06-11T09:44:37.610Z,38.01
2023-06-11T09:45:37.612Z,40.36
2023-06-11T09:46:37.596Z,39.66
2023-06-11T09:47:37.621Z,35.44
2023-06-11T09:48:37.551Z,36.63
2023-06-11T09:49:37.550Z,37.53
2023-06-11T09:50:37.529Z,38.63
2023-06-11T09:51:37.521Z,40.20
2023-06-11T09:52:37.512Z,39.88
2023-06-11T09:53:37.501Z,41.88
2023-06-11T09:54:37.491Z,37.56
2023-06-11T09:55:37.486Z,34.70
2023-06-11T09:56:37.473Z,37.05
2023-06-11T09:57:37.478Z,36.76
2023-06-11T09:58:37.478Z,34.99
2023-06-11T09:59:37.457Z,34.29
2023-06-11T10:00:37.466Z,34.29
2023-06-11T10:01:37.499Z,35.02
2023-06-11T10:02:37.433Z,38.64
2023-06-11T10:03:37.557Z,35.62
2023-06-11T10:04:37.396Z,36.95
2023-06-11T10:05:37.397Z,35.81
2023-06-11T10:06:37.418Z,37.22
2023-06-11T10:07:37.370Z,35.29
2023-06-11T10:08:37.362Z,36.76
2023-06-11T10:09:37.351Z,36.74
2023-06-11T10:10:37.338Z,37.24
2023-06-11T10:11:37.334Z,37.73
2023-06-11T10:12:37.318Z,37.59
2023-06-11T10:13:37.330Z,38.43
2023-06-11T10:14:37.301Z,39.26
2023-06-11T10:15:37.297Z,41.43
2023-06-11T10:16:37.326Z,37.89
2023-06-11T10:17:37.300Z,37.90
2023-06-11T10:18:37.269Z,37.94
2023-06-11T10:19:37.257Z,38.41
2023-06-11T10:20:37.245Z,36.84
2023-06-11T10:21:37.234Z,38.10
2023-06-11T10:22:37.221Z,36.72
2023-06-11T10:23:37.351Z,36.82
2023-06-11T10:24:37.200Z,38.43
2023-06-11T10:25:37.204Z,40.13
2023-06-11T10:26:37.245Z,40.19
2023-06-11T10:27:37.179Z,39.79
2023-06-11T10:28:37.163Z,37.86
2023-06-11T10:29:37.157Z,41.13
2023-06-11T10:30:37.149Z,42.73
2023-06-11T10:31:37.141Z,41.43
2023-06-11T10:32:37.225Z,38.35
2023-06-11T10:33:37.281Z,39.52
2023-06-11T10:34:37.232Z,38.98
2023-06-11T10:35:37.099Z,40.89
2023-06-11T10:36:37.204Z,40.52
2023-06-11T10:37:37.076Z,36.83
2023-06-11T10:38:37.065Z,36.66
2023-06-11T10:39:37.057Z,37.06
2023-06-11T10:40:37.098Z,36.37
2023-06-11T10:41:37.044Z,40.50
2023-06-11T10:42:37.035Z,36.29
2023-06-11T10:43:37.034Z,34.78
2023-06-11T10:44:37.004Z,36.29
2023-06-11T10:45:37.003Z,38.43
2023-06-11T10:46:37.006Z,37.10
2023-06-11T10:47:37.007Z,38.63
2023-06-11T10:48:36.987Z,35.98
2023-06-11T10:49:36.959Z,35.49
2023-06-11T10:50:36.958Z,37.30
2023-06-11T10:51:39.270Z,37.07
2023-06-11T10:52:36.923Z,38.54
2023-06-11T10:53:36.916Z,35.19
2023-06-11T10:54:36.904Z,33.95
2023-06-11T10:55:36.897Z,35.11
2023-06-11T10:56:36.884Z,35.68
2023-06-11T10:57:36.882Z,34.24
2023-06-11T10:58:36.867Z,34.93
2023-06-11T10:59:36.859Z,36.43
2023-06-11T11:00:36.845Z,34.76
2023-06-11T11:01:36.887Z,37.17
2023-06-11T11:02:36.882Z,33.93
2023-06-11T11:03:37.049Z,33.28
2023-06-11T11:04:36.833Z,35.25
2023-06-11T11:05:36.796Z,35.63
2023-06-11T11:06:36.782Z,33.80
2023-06-11T11:07:36.777Z,37.01
2023-06-11T11:08:36.769Z,38.43
2023-06-11T11:09:36.775Z,38.35
2023-06-11T11:10:36.744Z,36.56
2023-06-11T11:11:36.733Z,36.70
2023-06-11T11:12:36.720Z,36.11
2023-06-11T11:13:36.752Z,37.53
2023-06-11T11:14:36.720Z,38.06
2023-06-11T11:15:36.712Z,38.53
2023-06-11T11:16:36.709Z,39.08
2023-06-11T11:17:36.679Z,37.98
2023-06-11T11:18:36.660Z,38.43
2023-06-11T11:19:36.653Z,41.25
2023-06-11T11:20:36.662Z,39.79
2023-06-11T11:21:36.647Z,39.93
2023-06-11T11:22:36.624Z,39.97
2023-06-11T11:23:36.631Z,41.94
2023-06-11T11:24:39.091Z,39.79
2023-06-11T11:25:36.597Z,40.64
2023-06-11T11:26:36.579Z,39.77
2023-06-11T11:27:36.570Z,38.79
2023-06-11T11:28:36.563Z,38.81
2023-06-11T11:29:36.557Z,36.89
2023-06-11T11:30:36.539Z,35.56
2023-06-11T11:31:36.549Z,36.33
2023-06-11T11:32:36.543Z,36.51
2023-06-11T11:33:36.510Z,33.77
2023-06-11T11:34:36.502Z,32.33
2023-06-11T11:35:36.490Z,32.69
2023-06-11T11:36:36.501Z,34.71
2023-06-11T11:37:36.472Z,35.99
2023-06-11T11:38:36.475Z,35.92
2023-06-11T11:39:36.450Z,36.10
2023-06-11T11:40:36.444Z,29.73
2023-06-11T11:41:36.432Z,31.73
2023-06-11T11:42:36.427Z,32.36
2023-06-11T11:43:36.415Z,31.17
2023-06-11T11:44:36.406Z,33.45
2023-06-11T11:45:36.396Z,33.23
2023-06-11T11:46:36.397Z,35.60
2023-06-11T11:47:36.401Z,36.93
2023-06-11T11:48:36.366Z,34.21
2023-06-11T11:49:36.361Z,36.59
2023-06-11T11:50:36.351Z,34.81
2023-06-11T11:51:36.335Z,33.14
2023-06-11T11:52:36.350Z,31.94
2023-06-11T11:53:36.315Z,31.64
2023-06-11T11:54:36.315Z,31.96
2023-06-11T11:55:39.898Z,32.43
2023-06-11T11:56:37.326Z,31.09
2023-06-11T11:57:36.277Z,33.14
2023-06-11T11:58:36.265Z,33.80
2023-06-11T11:59:36.252Z,33.49
2023-06-11T12:00:36.248Z,32.29
2023-06-11T12:01:36.229Z,31.09
2023-06-11T12:02:36.312Z,31.58
2023-06-11T12:03:36.332Z,30.94
2023-06-11T12:04:36.203Z,31.48
2023-06-11T12:05:36.258Z,31.86
2023-06-11T12:06:36.183Z,32.69
2023-06-11T12:07:36.170Z,31.50
2023-06-11T12:08:36.258Z,33.94
2023-06-11T12:09:36.183Z,35.22
2023-06-11T12:10:36.146Z,34.01
2023-06-11T12:11:36.133Z,34.76
2023-06-11T12:12:36.126Z,29.50
2023-06-11T12:13:36.342Z,30.65
2023-06-11T12:14:36.124Z,29.49
2023-06-11T12:15:36.100Z,33.11
2023-06-11T12:16:36.096Z,33.55
2023-06-11T12:17:36.143Z,32.95
2023-06-11T12:18:36.068Z,34.63
2023-06-11T12:19:36.061Z,33.86
2023-06-11T12:20:36.082Z,35.65
2023-06-11T12:21:36.035Z,33.11
2023-06-11T12:22:36.035Z,33.00
2023-06-11T12:23:36.082Z,33.18
2023-06-11T12:24:36.142Z,32.65
2023-06-11T12:25:35.995Z,33.45
2023-06-11T12:26:35.988Z,31.92
2023-06-11T12:27:35.976Z,33.14
2023-06-11T12:28:35.974Z,34.39
2023-06-11T12:29:35.959Z,35.17
2023-06-11T12:30:35.960Z,33.72
2023-06-11T12:31:35.998Z,33.03
2023-06-11T12:32:35.951Z,34.37
2023-06-11T12:33:35.915Z,33.80
2023-06-11T12:34:35.912Z,34.94
2023-06-11T12:35:35.902Z,34.24
2023-06-11T12:36:35.894Z,32.26
2023-06-11T12:37:35.877Z,34.29
2023-06-11T12:38:37.902Z,35.93
2023-06-11T12:39:35.858Z,36.92
2023-06-11T12:40:35.875Z,40.01
2023-06-11T12:41:35.838Z,36.15
2023-06-11T12:42:35.827Z,37.06
2023-06-11T12:43:35.819Z,35.45
2023-06-11T12:44:35.810Z,36.26
2023-06-11T12:45:35.808Z,35.11
2023-06-11T12:46:35.863Z,35.91
2023-06-11T12:47:35.819Z,35.93
2023-06-11T12:48:35.773Z,37.01
2023-06-11T12:49:35.756Z,37.66
2023-06-11T12:50:35.749Z,38.47
2023-06-11T12:51:35.737Z,37.07
2023-06-11T12:52:35.730Z,40.66